Puebla de la Calzada, Spain
Current Conditions -  °F | °C
As of 11:00 AM on Sunday 21 Dec 2014 (Local Time) from LEBZ Reporting Station
Moderate Fog Moderate Fog  
Wind Chill: 41°   Ceiling: 100
Heat Index: 41°   Visibility: 0.12mi
Dew Point: 41°   Wind: 3mph
Humidity: 100%   Direction: 30°NNE
Pressure: 30.5"   Gusts: NA
Location:  38.89°N, 6.63°W
Report Text: LEBZ 211000Z 03003KT 360V070 0200 FG VV001 05/05 Q1033
Loading
Personal Weather Stations






























Interactive Weather Map New forecast layout! Learn more

10-Day Weather Forecast

Advertisements
Track Severe Weather on mobile